createdAt,value
2023-10-31T00:11:58.377Z,9.8
2023-10-31T00:26:58.297Z,9.8
2023-10-31T00:41:58.316Z,9.9
2023-10-31T00:56:58.248Z,9.7
2023-10-31T01:11:58.306Z,9.7
2023-10-31T01:26:58.262Z,9.6
2023-10-31T01:41:58.238Z,9.4
2023-10-31T01:56:58.198Z,9.3
2023-10-31T02:11:58.193Z,9.3
2023-10-31T02:26:58.197Z,9.4
2023-10-31T02:41:58.193Z,9.3
2023-10-31T02:56:58.134Z,9.3
2023-10-31T03:11:58.191Z,9.4
2023-10-31T03:26:58.148Z,9.5
2023-10-31T03:41:58.131Z,9.6
2023-10-31T03:56:58.210Z,9.6
2023-10-31T04:11:58.073Z,9.5
2023-10-31T04:26:58.054Z,9.3
2023-10-31T04:41:58.028Z,9.3
2023-10-31T04:56:58.014Z,9.1
2023-10-31T05:11:58.053Z,9
2023-10-31T05:26:58.007Z,9.1
2023-10-31T05:41:58.054Z,9.1
2023-10-31T05:56:57.932Z,9.1
2023-10-31T06:11:57.949Z,9.1
2023-10-31T06:26:58.064Z,9.1
2023-10-31T06:41:57.922Z,9.1
2023-10-31T06:56:57.881Z,9
2023-10-31T07:11:57.910Z,9.2
2023-10-31T07:26:57.875Z,9.3
2023-10-31T07:41:57.898Z,9.6
2023-10-31T07:56:57.823Z,9.8
2023-10-31T08:11:57.817Z,10
2023-10-31T08:26:57.784Z,10.1
2023-10-31T08:41:57.817Z,9.9
2023-10-31T08:56:57.764Z,10
2023-10-31T09:11:57.763Z,10.5
2023-10-31T09:26:57.729Z,11
2023-10-31T09:41:57.738Z,10.9
2023-10-31T09:56:57.704Z,11.3
2023-10-31T10:11:57.693Z,12.5
2023-10-31T10:26:57.663Z,12.9
2023-10-31T10:41:57.760Z,12.9
2023-10-31T10:56:57.623Z,13.1
2023-10-31T11:11:57.607Z,13.5
2023-10-31T11:26:57.568Z,13.6
2023-10-31T11:41:57.594Z,13.7
2023-10-31T11:56:57.553Z,14.3
2023-10-31T12:11:57.529Z,14.8
2023-10-31T12:26:57.493Z,15.2
2023-10-31T12:41:57.519Z,15.5
2023-10-31T12:56:57.426Z,15.2
2023-10-31T13:11:57.452Z,14.8
2023-10-31T13:26:57.414Z,15.2
2023-10-31T13:41:57.427Z,15
2023-10-31T13:56:57.401Z,14.9
2023-10-31T14:11:57.364Z,15.1
2023-10-31T14:26:57.302Z,15
2023-10-31T14:41:57.325Z,15
2023-10-31T14:56:57.305Z,14.7
2023-10-31T15:11:57.268Z,14.7
2023-10-31T15:26:57.258Z,14.7
2023-10-31T15:41:57.314Z,14.3
2023-10-31T15:56:57.199Z,13.8
2023-10-31T16:11:57.205Z,13.3
2023-10-31T16:26:57.172Z,13
2023-10-31T16:41:57.179Z,12.5
2023-10-31T16:56:57.130Z,12.1
2023-10-31T17:11:57.164Z,11.6
2023-10-31T17:26:57.249Z,11.4
2023-10-31T17:41:57.113Z,11.2
2023-10-31T17:56:57.163Z,11
2023-10-31T18:11:57.086Z,10.8
2023-10-31T18:26:56.992Z,10.6
2023-10-31T18:42:03.584Z,10.4
2023-10-31T18:56:56.989Z,10.3
2023-10-31T19:11:57.000Z,10.2
2023-10-31T19:26:56.963Z,10.2
2023-10-31T19:41:58.810Z,10
2023-10-31T19:56:56.967Z,9.8
2023-10-31T20:11:56.917Z,9.9
2023-10-31T20:26:56.893Z,9.9
2023-10-31T20:41:56.904Z,10
2023-10-31T20:56:56.828Z,10
2023-10-31T21:11:56.867Z,9.8
2023-10-31T21:26:56.886Z,9.7
2023-10-31T21:41:56.853Z,9.4
2023-10-31T21:56:56.800Z,9
2023-10-31T22:11:56.829Z,9
2023-10-31T22:26:56.744Z,8.9
2023-10-31T22:41:56.775Z,8.6
2023-10-31T22:56:56.711Z,8.2
2023-10-31T23:11:56.737Z,8.2
2023-10-31T23:26:56.704Z,8
2023-10-31T23:41:56.709Z,7.8
2023-10-31T23:56:56.696Z,7.5
